sensor_id;sensor_type;location;lat;lon;timestamp;P1;durP1;ratioP1;P2;durP2;ratioP2
37535;SDS011;23379;51.554;6.736;2024-01-16T00:00:21;10.48;;;5.63;;
37535;SDS011;23379;51.554;6.736;2024-01-16T00:02:47;10.90;;;6.28;;
37535;SDS011;23379;51.554;6.736;2024-01-16T00:05:12;8.90;;;5.78;;
37535;SDS011;23379;51.554;6.736;2024-01-16T00:07:38;7.95;;;4.97;;
37535;SDS011;23379;51.554;6.736;2024-01-16T00:10:06;10.80;;;5.80;;
37535;SDS011;23379;51.554;6.736;2024-01-16T00:12:32;11.43;;;5.40;;
37535;SDS011;23379;51.554;6.736;2024-01-16T00:14:57;6.07;;;4.90;;
37535;SDS011;23379;51.554;6.736;2024-01-16T00:17:23;9.30;;;5.03;;
37535;SDS011;23379;51.554;6.736;2024-01-16T00:19:48;8.93;;;5.05;;
37535;SDS011;23379;51.554;6.736;2024-01-16T00:22:14;5.93;;;4.22;;
37535;SDS011;23379;51.554;6.736;2024-01-16T00:24:39;7.85;;;4.63;;
37535;SDS011;23379;51.554;6.736;2024-01-16T00:27:05;11.07;;;4.72;;
37535;SDS011;23379;51.554;6.736;2024-01-16T00:29:30;9.10;;;4.95;;
37535;SDS011;23379;51.554;6.736;2024-01-16T00:31:55;6.68;;;4.72;;
37535;SDS011;23379;51.554;6.736;2024-01-16T00:34:21;7.55;;;4.57;;
37535;SDS011;23379;51.554;6.736;2024-01-16T00:36:46;7.80;;;4.60;;
37535;SDS011;23379;51.554;6.736;2024-01-16T00:39:11;8.38;;;4.25;;
37535;SDS011;23379;51.554;6.736;2024-01-16T00:41:38;12.68;;;5.03;;
37535;SDS011;23379;51.554;6.736;2024-01-16T00:44:03;4.78;;;4.30;;
37535;SDS011;23379;51.554;6.736;2024-01-16T00:46:29;13.73;;;4.95;;
37535;SDS011;23379;51.554;6.736;2024-01-16T00:48:54;8.13;;;4.40;;
37535;SDS011;23379;51.554;6.736;2024-01-16T00:51:19;10.25;;;5.10;;
37535;SDS011;23379;51.554;6.736;2024-01-16T00:53:45;7.80;;;4.20;;
37535;SDS011;23379;51.554;6.736;2024-01-16T00:56:10;7.43;;;4.40;;
37535;SDS011;23379;51.554;6.736;2024-01-16T00:58:35;7.72;;;4.80;;
37535;SDS011;23379;51.554;6.736;2024-01-16T01:01:01;11.30;;;4.95;;
37535;SDS011;23379;51.554;6.736;2024-01-16T01:03:26;9.63;;;4.93;;
37535;SDS011;23379;51.554;6.736;2024-01-16T01:05:52;9.60;;;4.20;;
37535;SDS011;23379;51.554;6.736;2024-01-16T01:08:17;6.97;;;4.75;;
37535;SDS011;23379;51.554;6.736;2024-01-16T01:10:42;11.57;;;4.72;;
37535;SDS011;23379;51.554;6.736;2024-01-16T01:13:08;10.55;;;5.63;;
37535;SDS011;23379;51.554;6.736;2024-01-16T01:15:33;6.30;;;5.15;;
37535;SDS011;23379;51.554;6.736;2024-01-16T01:17:58;10.90;;;5.32;;
37535;SDS011;23379;51.554;6.736;2024-01-16T01:20:24;8.65;;;4.82;;
37535;SDS011;23379;51.554;6.736;2024-01-16T01:22:49;9.02;;;4.82;;
37535;SDS011;23379;51.554;6.736;2024-01-16T01:25:14;7.80;;;5.00;;
37535;SDS011;23379;51.554;6.736;2024-01-16T01:27:40;7.43;;;5.18;;
37535;SDS011;23379;51.554;6.736;2024-01-16T01:30:06;10.98;;;5.75;;
37535;SDS011;23379;51.554;6.736;2024-01-16T01:32:33;9.93;;;5.10;;
37535;SDS011;23379;51.554;6.736;2024-01-16T01:34:59;9.00;;;5.82;;
37535;SDS011;23379;51.554;6.736;2024-01-16T01:37:24;7.47;;;5.13;;
37535;SDS011;23379;51.554;6.736;2024-01-16T01:39:50;8.68;;;5.78;;
37535;SDS011;23379;51.554;6.736;2024-01-16T01:42:15;7.97;;;5.38;;
37535;SDS011;23379;51.554;6.736;2024-01-16T01:44:40;6.85;;;5.28;;
37535;SDS011;23379;51.554;6.736;2024-01-16T01:47:06;12.77;;;5.00;;
37535;SDS011;23379;51.554;6.736;2024-01-16T01:49:33;7.25;;;5.32;;
37535;SDS011;23379;51.554;6.736;2024-01-16T01:52:00;8.02;;;5.25;;
37535;SDS011;23379;51.554;6.736;2024-01-16T01:54:25;10.57;;;5.38;;
37535;SDS011;23379;51.554;6.736;2024-01-16T01:56:52;8.10;;;5.45;;
37535;SDS011;23379;51.554;6.736;2024-01-16T01:59:17;10.52;;;5.47;;
37535;SDS011;23379;51.554;6.736;2024-01-16T02:01:44;7.18;;;4.97;;
37535;SDS011;23379;51.554;6.736;2024-01-16T02:04:12;8.30;;;4.50;;
37535;SDS011;23379;51.554;6.736;2024-01-16T02:06:42;10.07;;;5.75;;
37535;SDS011;23379;51.554;6.736;2024-01-16T02:09:09;9.10;;;6.15;;
37535;SDS011;23379;51.554;6.736;2024-01-16T02:11:35;11.35;;;5.30;;
37535;SDS011;23379;51.554;6.736;2024-01-16T02:14:00;8.48;;;5.38;;
37535;SDS011;23379;51.554;6.736;2024-01-16T02:16:25;10.38;;;5.25;;
37535;SDS011;23379;51.554;6.736;2024-01-16T02:18:51;10.23;;;5.28;;
37535;SDS011;23379;51.554;6.736;2024-01-16T02:21:18;7.97;;;5.40;;
37535;SDS011;23379;51.554;6.736;2024-01-16T02:23:46;7.60;;;4.80;;
37535;SDS011;23379;51.554;6.736;2024-01-16T02:26:13;6.97;;;5.53;;
37535;SDS011;23379;51.554;6.736;2024-01-16T02:28:40;6.25;;;5.20;;
37535;SDS011;23379;51.554;6.736;2024-01-16T02:31:05;5.35;;;4.78;;
37535;SDS011;23379;51.554;6.736;2024-01-16T02:33:32;12.02;;;5.35;;
37535;SDS011;23379;51.554;6.736;2024-01-16T02:35:58;7.75;;;5.70;;
37535;SDS011;23379;51.554;6.736;2024-01-16T02:38:23;8.00;;;5.40;;
37535;SDS011;23379;51.554;6.736;2024-01-16T02:40:49;7.40;;;5.57;;
37535;SDS011;23379;51.554;6.736;2024-01-16T02:43:15;12.18;;;5.90;;
37535;SDS011;23379;51.554;6.736;2024-01-16T02:45:40;7.95;;;5.97;;
37535;SDS011;23379;51.554;6.736;2024-01-16T02:48:06;7.55;;;5.97;;
37535;SDS011;23379;51.554;6.736;2024-01-16T02:50:31;11.10;;;6.10;;
37535;SDS011;23379;51.554;6.736;2024-01-16T02:52:57;9.20;;;6.38;;
37535;SDS011;23379;51.554;6.736;2024-01-16T02:55:22;7.03;;;6.13;;
37535;SDS011;23379;51.554;6.736;2024-01-16T02:57:48;9.70;;;5.95;;
37535;SDS011;23379;51.554;6.736;2024-01-16T03:00:13;9.27;;;6.40;;
37535;SDS011;23379;51.554;6.736;2024-01-16T03:02:39;9.77;;;6.05;;
37535;SDS011;23379;51.554;6.736;2024-01-16T03:05:05;8.25;;;5.43;;
37535;SDS011;23379;51.554;6.736;2024-01-16T03:07:30;8.18;;;5.80;;
37535;SDS011;23379;51.554;6.736;2024-01-16T03:09:56;11.40;;;6.07;;
37535;SDS011;23379;51.554;6.736;2024-01-16T03:12:21;12.73;;;5.93;;
37535;SDS011;23379;51.554;6.736;2024-01-16T03:14:47;8.32;;;6.20;;
37535;SDS011;23379;51.554;6.736;2024-01-16T03:17:12;12.70;;;6.50;;
37535;SDS011;23379;51.554;6.736;2024-01-16T03:19:37;6.63;;;5.55;;
37535;SDS011;23379;51.554;6.736;2024-01-16T03:22:03;6.72;;;5.43;;
37535;SDS011;23379;51.554;6.736;2024-01-16T03:24:28;9.00;;;5.40;;
37535;SDS011;23379;51.554;6.736;2024-01-16T03:26:54;9.07;;;5.85;;
37535;SDS011;23379;51.554;6.736;2024-01-16T03:29:19;8.13;;;5.60;;
37535;SDS011;23379;51.554;6.736;2024-01-16T03:31:45;8.77;;;6.20;;
37535;SDS011;23379;51.554;6.736;2024-01-16T03:34:10;8.60;;;6.20;;
37535;SDS011;23379;51.554;6.736;2024-01-16T03:36:36;10.18;;;6.22;;
37535;SDS011;23379;51.554;6.736;2024-01-16T03:39:02;10.20;;;6.32;;
37535;SDS011;23379;51.554;6.736;2024-01-16T03:41:27;11.20;;;6.05;;
37535;SDS011;23379;51.554;6.736;2024-01-16T03:43:52;10.68;;;6.60;;
37535;SDS011;23379;51.554;6.736;2024-01-16T03:46:21;11.00;;;6.70;;
37535;SDS011;23379;51.554;6.736;2024-01-16T03:48:47;9.90;;;6.43;;
37535;SDS011;23379;51.554;6.736;2024-01-16T03:51:12;10.13;;;7.40;;
37535;SDS011;23379;51.554;6.736;2024-01-16T03:53:40;14.32;;;7.50;;
37535;SDS011;23379;51.554;6.736;2024-01-16T03:56:06;15.55;;;8.07;;
37535;SDS011;23379;51.554;6.736;2024-01-16T03:58:32;11.60;;;7.50;;
37535;SDS011;23379;51.554;6.736;2024-01-16T04:00:58;18.17;;;7.47;;
37535;SDS011;23379;51.554;6.736;2024-01-16T04:03:23;14.90;;;7.53;;
37535;SDS011;23379;51.554;6.736;2024-01-16T04:05:49;13.20;;;6.78;;
37535;SDS011;23379;51.554;6.736;2024-01-16T04:08:14;13.45;;;6.90;;
37535;SDS011;23379;51.554;6.736;2024-01-16T04:10:39;11.52;;;7.43;;
37535;SDS011;23379;51.554;6.736;2024-01-16T04:13:05;9.40;;;7.40;;
37535;SDS011;23379;51.554;6.736;2024-01-16T04:15:31;12.80;;;7.78;;
37535;SDS011;23379;51.554;6.736;2024-01-16T04:17:56;15.38;;;6.68;;
37535;SDS011;23379;51.554;6.736;2024-01-16T04:20:22;11.35;;;6.78;;
37535;SDS011;23379;51.554;6.736;2024-01-16T04:22:47;12.02;;;7.03;;
37535;SDS011;23379;51.554;6.736;2024-01-16T04:25:13;15.13;;;7.20;;
37535;SDS011;23379;51.554;6.736;2024-01-16T04:27:39;11.57;;;5.88;;
37535;SDS011;23379;51.554;6.736;2024-01-16T04:30:05;9.30;;;6.13;;
37535;SDS011;23379;51.554;6.736;2024-01-16T04:32:31;8.63;;;6.25;;
37535;SDS011;23379;51.554;6.736;2024-01-16T04:34:56;9.35;;;5.80;;
37535;SDS011;23379;51.554;6.736;2024-01-16T04:37:22;14.23;;;5.82;;
37535;SDS011;23379;51.554;6.736;2024-01-16T04:39:47;12.60;;;6.03;;
37535;SDS011;23379;51.554;6.736;2024-01-16T04:42:12;10.05;;;6.25;;
37535;SDS011;23379;51.554;6.736;2024-01-16T04:44:38;7.93;;;5.18;;
37535;SDS011;23379;51.554;6.736;2024-01-16T04:47:03;10.23;;;5.78;;
37535;SDS011;23379;51.554;6.736;2024-01-16T04:49:29;9.93;;;6.00;;
37535;SDS011;23379;51.554;6.736;2024-01-16T04:51:54;6.18;;;5.22;;
37535;SDS011;23379;51.554;6.736;2024-01-16T04:54:19;9.15;;;4.72;;
37535;SDS011;23379;51.554;6.736;2024-01-16T04:56:45;10.98;;;5.53;;
37535;SDS011;23379;51.554;6.736;2024-01-16T04:59:10;8.52;;;4.82;;
37535;SDS011;23379;51.554;6.736;2024-01-16T05:01:35;7.18;;;4.00;;
37535;SDS011;23379;51.554;6.736;2024-01-16T05:04:01;8.45;;;3.90;;
37535;SDS011;23379;51.554;6.736;2024-01-16T05:06:26;12.07;;;5.15;;
37535;SDS011;23379;51.554;6.736;2024-01-16T05:08:51;4.82;;;4.22;;
37535;SDS011;23379;51.554;6.736;2024-01-16T05:11:18;9.02;;;5.07;;
37535;SDS011;23379;51.554;6.736;2024-01-16T05:13:43;6.88;;;4.28;;
37535;SDS011;23379;51.554;6.736;2024-01-16T05:16:09;6.35;;;4.95;;
37535;SDS011;23379;51.554;6.736;2024-01-16T05:18:34;8.25;;;4.50;;
37535;SDS011;23379;51.554;6.736;2024-01-16T05:21:00;11.05;;;4.57;;
37535;SDS011;23379;51.554;6.736;2024-01-16T05:23:25;8.95;;;4.72;;
37535;SDS011;23379;51.554;6.736;2024-01-16T05:25:51;9.02;;;4.72;;
37535;SDS011;23379;51.554;6.736;2024-01-16T05:28:16;10.82;;;4.18;;
37535;SDS011;23379;51.554;6.736;2024-01-16T05:30:42;14.40;;;4.13;;
37535;SDS011;23379;51.554;6.736;2024-01-16T05:33:08;6.05;;;4.05;;
37535;SDS011;23379;51.554;6.736;2024-01-16T05:35:33;3.55;;;3.25;;
37535;SDS011;23379;51.554;6.736;2024-01-16T05:37:59;7.55;;;3.67;;
37535;SDS011;23379;51.554;6.736;2024-01-16T05:40:24;6.38;;;3.58;;
37535;SDS011;23379;51.554;6.736;2024-01-16T05:42:50;7.88;;;4.10;;
37535;SDS011;23379;51.554;6.736;2024-01-16T05:45:16;4.63;;;3.42;;
37535;SDS011;23379;51.554;6.736;2024-01-16T05:47:41;7.10;;;4.00;;
37535;SDS011;23379;51.554;6.736;2024-01-16T05:50:07;9.20;;;4.10;;
37535;SDS011;23379;51.554;6.736;2024-01-16T05:52:34;9.40;;;4.55;;
37535;SDS011;23379;51.554;6.736;2024-01-16T05:54:59;9.95;;;5.30;;
37535;SDS011;23379;51.554;6.736;2024-01-16T05:57:25;10.05;;;5.38;;
37535;SDS011;23379;51.554;6.736;2024-01-16T05:59:51;8.93;;;5.38;;
37535;SDS011;23379;51.554;6.736;2024-01-16T06:02:16;11.27;;;6.22;;
37535;SDS011;23379;51.554;6.736;2024-01-16T06:04:42;12.20;;;6.13;;
37535;SDS011;23379;51.554;6.736;2024-01-16T06:07:08;12.73;;;6.57;;
37535;SDS011;23379;51.554;6.736;2024-01-16T06:09:38;9.55;;;6.90;;
37535;SDS011;23379;51.554;6.736;2024-01-16T06:12:05;12.48;;;7.47;;
37535;SDS011;23379;51.554;6.736;2024-01-16T06:14:32;14.98;;;8.05;;
37535;SDS011;23379;51.554;6.736;2024-01-16T06:16:57;15.57;;;8.75;;
37535;SDS011;23379;51.554;6.736;2024-01-16T06:19:22;21.50;;;10.48;;
37535;SDS011;23379;51.554;6.736;2024-01-16T06:21:48;14.23;;;9.07;;
37535;SDS011;23379;51.554;6.736;2024-01-16T06:24:13;18.80;;;9.70;;
37535;SDS011;23379;51.554;6.736;2024-01-16T06:26:39;19.55;;;10.77;;
37535;SDS011;23379;51.554;6.736;2024-01-16T06:29:04;15.45;;;10.80;;
37535;SDS011;23379;51.554;6.736;2024-01-16T06:31:29;23.15;;;11.55;;
37535;SDS011;23379;51.554;6.736;2024-01-16T06:33:55;16.95;;;11.13;;
37535;SDS011;23379;51.554;6.736;2024-01-16T06:36:20;24.25;;;12.70;;
37535;SDS011;23379;51.554;6.736;2024-01-16T06:38:46;24.65;;;12.85;;
37535;SDS011;23379;51.554;6.736;2024-01-16T06:41:11;20.55;;;11.35;;
37535;SDS011;23379;51.554;6.736;2024-01-16T06:43:37;23.95;;;11.27;;
37535;SDS011;23379;51.554;6.736;2024-01-16T06:46:02;21.38;;;12.02;;
37535;SDS011;23379;51.554;6.736;2024-01-16T06:48:27;18.50;;;10.98;;
37535;SDS011;23379;51.554;6.736;2024-01-16T06:50:53;21.13;;;11.15;;
37535;SDS011;23379;51.554;6.736;2024-01-16T06:53:18;20.27;;;11.63;;
37535;SDS011;23379;51.554;6.736;2024-01-16T06:55:43;17.88;;;11.02;;
37535;SDS011;23379;51.554;6.736;2024-01-16T06:58:09;19.65;;;10.88;;
37535;SDS011;23379;51.554;6.736;2024-01-16T07:00:35;21.05;;;10.27;;
37535;SDS011;23379;51.554;6.736;2024-01-16T07:03:00;23.35;;;9.88;;
37535;SDS011;23379;51.554;6.736;2024-01-16T07:05:26;14.63;;;8.70;;
37535;SDS011;23379;51.554;6.736;2024-01-16T07:07:51;17.27;;;9.48;;
37535;SDS011;23379;51.554;6.736;2024-01-16T07:10:16;20.42;;;9.00;;
37535;SDS011;23379;51.554;6.736;2024-01-16T07:12:47;18.55;;;8.85;;
37535;SDS011;23379;51.554;6.736;2024-01-16T07:15:14;18.63;;;8.20;;
37535;SDS011;23379;51.554;6.736;2024-01-16T07:17:40;13.05;;;7.88;;
37535;SDS011;23379;51.554;6.736;2024-01-16T07:20:05;15.32;;;7.78;;
37535;SDS011;23379;51.554;6.736;2024-01-16T07:22:32;12.63;;;7.10;;
37535;SDS011;23379;51.554;6.736;2024-01-16T07:24:59;14.40;;;6.65;;
37535;SDS011;23379;51.554;6.736;2024-01-16T07:27:25;17.80;;;7.43;;
37535;SDS011;23379;51.554;6.736;2024-01-16T07:29:50;10.98;;;6.80;;
37535;SDS011;23379;51.554;6.736;2024-01-16T07:32:15;14.80;;;7.00;;
37535;SDS011;23379;51.554;6.736;2024-01-16T07:34:41;13.27;;;6.72;;
37535;SDS011;23379;51.554;6.736;2024-01-16T07:37:06;15.05;;;6.43;;
37535;SDS011;23379;51.554;6.736;2024-01-16T07:39:32;15.82;;;6.40;;
37535;SDS011;23379;51.554;6.736;2024-01-16T07:41:57;15.63;;;6.00;;
37535;SDS011;23379;51.554;6.736;2024-01-16T07:44:22;15.98;;;6.22;;
37535;SDS011;23379;51.554;6.736;2024-01-16T07:46:48;9.18;;;5.97;;
37535;SDS011;23379;51.554;6.736;2024-01-16T07:49:13;8.77;;;5.85;;
37535;SDS011;23379;51.554;6.736;2024-01-16T07:51:39;9.23;;;5.28;;
37535;SDS011;23379;51.554;6.736;2024-01-16T07:54:05;10.50;;;5.95;;
37535;SDS011;23379;51.554;6.736;2024-01-16T07:56:34;10.30;;;5.35;;
37535;SDS011;23379;51.554;6.736;2024-01-16T07:59:00;11.02;;;5.70;;
37535;SDS011;23379;51.554;6.736;2024-01-16T08:01:26;11.15;;;5.35;;
37535;SDS011;23379;51.554;6.736;2024-01-16T08:03:53;13.95;;;5.72;;
37535;SDS011;23379;51.554;6.736;2024-01-16T08:06:19;15.48;;;6.07;;
37535;SDS011;23379;51.554;6.736;2024-01-16T08:08:44;9.27;;;5.40;;
37535;SDS011;23379;51.554;6.736;2024-01-16T08:11:11;10.82;;;5.80;;
37535;SDS011;23379;51.554;6.736;2024-01-16T08:13:37;9.35;;;5.63;;
37535;SDS011;23379;51.554;6.736;2024-01-16T08:16:02;11.85;;;5.15;;
37535;SDS011;23379;51.554;6.736;2024-01-16T08:18:28;11.98;;;4.47;;
37535;SDS011;23379;51.554;6.736;2024-01-16T08:20:53;16.08;;;5.65;;
37535;SDS011;23379;51.554;6.736;2024-01-16T08:23:18;8.68;;;5.55;;
37535;SDS011;23379;51.554;6.736;2024-01-16T08:25:46;11.35;;;4.75;;
37535;SDS011;23379;51.554;6.736;2024-01-16T08:28:11;11.80;;;4.95;;
37535;SDS011;23379;51.554;6.736;2024-01-16T08:30:36;7.22;;;4.57;;
37535;SDS011;23379;51.554;6.736;2024-01-16T08:33:02;8.75;;;4.47;;
37535;SDS011;23379;51.554;6.736;2024-01-16T08:35:27;9.55;;;4.20;;
37535;SDS011;23379;51.554;6.736;2024-01-16T08:37:52;13.63;;;5.05;;
37535;SDS011;23379;51.554;6.736;2024-01-16T08:40:18;9.23;;;5.07;;
37535;SDS011;23379;51.554;6.736;2024-01-16T08:42:43;10.80;;;4.28;;
37535;SDS011;23379;51.554;6.736;2024-01-16T08:45:08;8.68;;;4.65;;
37535;SDS011;23379;51.554;6.736;2024-01-16T08:47:35;11.40;;;5.00;;
37535;SDS011;23379;51.554;6.736;2024-01-16T08:50:00;11.98;;;4.55;;
37535;SDS011;23379;51.554;6.736;2024-01-16T08:52:25;13.55;;;4.45;;
37535;SDS011;23379;51.554;6.736;2024-01-16T08:54:50;14.13;;;4.18;;
37535;SDS011;23379;51.554;6.736;2024-01-16T08:57:16;11.18;;;4.78;;
37535;SDS011;23379;51.554;6.736;2024-01-16T08:59:41;10.32;;;4.30;;
37535;SDS011;23379;51.554;6.736;2024-01-16T09:02:06;10.80;;;3.97;;
37535;SDS011;23379;51.554;6.736;2024-01-16T09:04:32;13.60;;;4.47;;
37535;SDS011;23379;51.554;6.736;2024-01-16T09:06:58;14.23;;;4.82;;
37535;SDS011;23379;51.554;6.736;2024-01-16T09:09:23;7.90;;;4.47;;
37535;SDS011;23379;51.554;6.736;2024-01-16T09:11:48;9.50;;;4.35;;
37535;SDS011;23379;51.554;6.736;2024-01-16T09:14:14;10.68;;;4.65;;
37535;SDS011;23379;51.554;6.736;2024-01-16T09:16:39;9.40;;;4.03;;
37535;SDS011;23379;51.554;6.736;2024-01-16T09:19:05;13.57;;;3.83;;
37535;SDS011;23379;51.554;6.736;2024-01-16T09:21:31;8.30;;;4.05;;
37535;SDS011;23379;51.554;6.736;2024-01-16T09:23:56;6.15;;;3.72;;
37535;SDS011;23379;51.554;6.736;2024-01-16T09:26:22;4.75;;;3.38;;
37535;SDS011;23379;51.554;6.736;2024-01-16T09:28:48;5.78;;;3.92;;
37535;SDS011;23379;51.554;6.736;2024-01-16T09:31:14;7.75;;;4.25;;
37535;SDS011;23379;51.554;6.736;2024-01-16T09:33:40;12.18;;;4.32;;
37535;SDS011;23379;51.554;6.736;2024-01-16T09:36:05;13.65;;;4.68;;
37535;SDS011;23379;51.554;6.736;2024-01-16T09:38:31;10.38;;;4.30;;
37535;SDS011;23379;51.554;6.736;2024-01-16T09:40:56;13.88;;;4.57;;
37535;SDS011;23379;51.554;6.736;2024-01-16T09:43:24;12.52;;;4.43;;
37535;SDS011;23379;51.554;6.736;2024-01-16T09:45:51;7.78;;;4.45;;
37535;SDS011;23379;51.554;6.736;2024-01-16T09:48:19;11.80;;;4.75;;
37535;SDS011;23379;51.554;6.736;2024-01-16T09:50:44;12.65;;;5.20;;
37535;SDS011;23379;51.554;6.736;2024-01-16T09:53:10;8.57;;;4.75;;
37535;SDS011;23379;51.554;6.736;2024-01-16T09:55:36;12.13;;;5.07;;
37535;SDS011;23379;51.554;6.736;2024-01-16T09:58:01;12.68;;;4.25;;
37535;SDS011;23379;51.554;6.736;2024-01-16T10:00:28;9.23;;;4.25;;
37535;SDS011;23379;51.554;6.736;2024-01-16T10:02:55;11.60;;;4.43;;
37535;SDS011;23379;51.554;6.736;2024-01-16T10:05:23;14.43;;;4.85;;
37535;SDS011;23379;51.554;6.736;2024-01-16T10:07:49;7.72;;;4.55;;
37535;SDS011;23379;51.554;6.736;2024-01-16T10:10:16;7.18;;;4.47;;
37535;SDS011;23379;51.554;6.736;2024-01-16T10:12:42;9.93;;;4.57;;
37535;SDS011;23379;51.554;6.736;2024-01-16T10:15:08;16.17;;;4.35;;
37535;SDS011;23379;51.554;6.736;2024-01-16T10:17:38;10.75;;;4.28;;
37535;SDS011;23379;51.554;6.736;2024-01-16T10:20:04;9.77;;;4.38;;
37535;SDS011;23379;51.554;6.736;2024-01-16T10:22:30;11.88;;;4.95;;
37535;SDS011;23379;51.554;6.736;2024-01-16T10:27:35;10.02;;;4.55;;
37535;SDS011;23379;51.554;6.736;2024-01-16T10:30:01;15.13;;;4.80;;
37535;SDS011;23379;51.554;6.736;2024-01-16T10:32:28;9.15;;;4.43;;
37535;SDS011;23379;51.554;6.736;2024-01-16T10:35:13;12.77;;;4.85;;
37535;SDS011;23379;51.554;6.736;2024-01-16T10:37:52;8.00;;;4.07;;
37535;SDS011;23379;51.554;6.736;2024-01-16T10:42:45;12.40;;;5.22;;
37535;SDS011;23379;51.554;6.736;2024-01-16T10:45:17;11.55;;;5.13;;
37535;SDS011;23379;51.554;6.736;2024-01-16T10:47:47;7.70;;;4.82;;
37535;SDS011;23379;51.554;6.736;2024-01-16T10:50:13;6.82;;;4.32;;
37535;SDS011;23379;51.554;6.736;2024-01-16T10:52:42;9.88;;;4.30;;
37535;SDS011;23379;51.554;6.736;2024-01-16T10:55:19;10.57;;;4.97;;
37535;SDS011;23379;51.554;6.736;2024-01-16T10:57:48;10.48;;;4.75;;
37535;SDS011;23379;51.554;6.736;2024-01-16T11:00:14;9.48;;;4.78;;
37535;SDS011;23379;51.554;6.736;2024-01-16T11:05:44;8.27;;;4.55;;
37535;SDS011;23379;51.554;6.736;2024-01-16T11:08:11;10.95;;;4.13;;
37535;SDS011;23379;51.554;6.736;2024-01-16T11:10:38;8.90;;;3.25;;
37535;SDS011;23379;51.554;6.736;2024-01-16T11:13:05;8.88;;;4.40;;
37535;SDS011;23379;51.554;6.736;2024-01-16T11:15:31;8.82;;;3.38;;
37535;SDS011;23379;51.554;6.736;2024-01-16T11:17:57;7.93;;;3.50;;
37535;SDS011;23379;51.554;6.736;2024-01-16T11:20:24;7.07;;;3.67;;
37535;SDS011;23379;51.554;6.736;2024-01-16T11:22:52;8.68;;;3.35;;
37535;SDS011;23379;51.554;6.736;2024-01-16T11:25:24;7.13;;;3.60;;
37535;SDS011;23379;51.554;6.736;2024-01-16T11:28:01;12.50;;;3.72;;
37535;SDS011;23379;51.554;6.736;2024-01-16T11:30:33;11.85;;;4.00;;
37535;SDS011;23379;51.554;6.736;2024-01-16T11:32:59;9.25;;;3.55;;
37535;SDS011;23379;51.554;6.736;2024-01-16T11:35:34;8.75;;;3.63;;
37535;SDS011;23379;51.554;6.736;2024-01-16T11:38:05;7.45;;;3.78;;
37535;SDS011;23379;51.554;6.736;2024-01-16T11:40:33;8.00;;;3.33;;
37535;SDS011;23379;51.554;6.736;2024-01-16T11:42:58;9.05;;;3.88;;
37535;SDS011;23379;51.554;6.736;2024-01-16T11:46:00;7.50;;;3.25;;
37535;SDS011;23379;51.554;6.736;2024-01-16T11:48:34;8.43;;;3.50;;
37535;SDS011;23379;51.554;6.736;2024-01-16T11:51:00;7.45;;;3.85;;
37535;SDS011;23379;51.554;6.736;2024-01-16T11:53:49;7.57;;;3.55;;
37535;SDS011;23379;51.554;6.736;2024-01-16T11:56:30;17.13;;;3.15;;
37535;SDS011;23379;51.554;6.736;2024-01-16T12:01:50;10.00;;;3.38;;
37535;SDS011;23379;51.554;6.736;2024-01-16T12:04:18;8.18;;;3.47;;
37535;SDS011;23379;51.554;6.736;2024-01-16T12:06:46;8.55;;;3.17;;
37535;SDS011;23379;51.554;6.736;2024-01-16T12:09:22;6.07;;;3.15;;
37535;SDS011;23379;51.554;6.736;2024-01-16T12:11:59;12.30;;;3.60;;
37535;SDS011;23379;51.554;6.736;2024-01-16T12:14:28;8.82;;;3.25;;
37535;SDS011;23379;51.554;6.736;2024-01-16T12:17:10;7.70;;;3.03;;
37535;SDS011;23379;51.554;6.736;2024-01-16T12:19:36;8.63;;;3.22;;
37535;SDS011;23379;51.554;6.736;2024-01-16T12:22:01;7.93;;;3.25;;
37535;SDS011;23379;51.554;6.736;2024-01-16T12:24:27;9.65;;;3.05;;
37535;SDS011;23379;51.554;6.736;2024-01-16T12:26:57;10.05;;;3.13;;
37535;SDS011;23379;51.554;6.736;2024-01-16T12:29:22;10.27;;;4.03;;
37535;SDS011;23379;51.554;6.736;2024-01-16T12:31:48;7.38;;;3.58;;
37535;SDS011;23379;51.554;6.736;2024-01-16T12:34:13;11.57;;;3.92;;
37535;SDS011;23379;51.554;6.736;2024-01-16T12:36:39;11.60;;;3.28;;
37535;SDS011;23379;51.554;6.736;2024-01-16T12:39:04;10.07;;;3.30;;
37535;SDS011;23379;51.554;6.736;2024-01-16T12:41:31;7.18;;;3.10;;
37535;SDS011;23379;51.554;6.736;2024-01-16T12:43:59;8.20;;;3.90;;
37535;SDS011;23379;51.554;6.736;2024-01-16T12:46:25;11.90;;;3.80;;
37535;SDS011;23379;51.554;6.736;2024-01-16T12:48:50;7.75;;;3.42;;
37535;SDS011;23379;51.554;6.736;2024-01-16T12:51:22;12.75;;;3.90;;
37535;SDS011;23379;51.554;6.736;2024-01-16T12:53:48;11.57;;;3.53;;
37535;SDS011;23379;51.554;6.736;2024-01-16T12:56:17;9.70;;;3.63;;
37535;SDS011;23379;51.554;6.736;2024-01-16T12:58:43;9.23;;;3.80;;
37535;SDS011;23379;51.554;6.736;2024-01-16T13:01:30;5.88;;;3.97;;
37535;SDS011;23379;51.554;6.736;2024-01-16T13:03:55;7.35;;;3.55;;
37535;SDS011;23379;51.554;6.736;2024-01-16T13:06:21;8.50;;;3.85;;
37535;SDS011;23379;51.554;6.736;2024-01-16T13:08:47;9.63;;;4.63;;
37535;SDS011;23379;51.554;6.736;2024-01-16T13:11:16;8.02;;;3.97;;
37535;SDS011;23379;51.554;6.736;2024-01-16T13:13:45;6.13;;;4.20;;
37535;SDS011;23379;51.554;6.736;2024-01-16T13:16:13;12.60;;;4.18;;
37535;SDS011;23379;51.554;6.736;2024-01-16T13:18:38;10.93;;;3.97;;
37535;SDS011;23379;51.554;6.736;2024-01-16T13:21:04;8.43;;;4.00;;
37535;SDS011;23379;51.554;6.736;2024-01-16T13:23:29;9.20;;;4.28;;
37535;SDS011;23379;51.554;6.736;2024-01-16T13:25:55;10.07;;;4.20;;
37535;SDS011;23379;51.554;6.736;2024-01-16T13:28:21;10.10;;;4.07;;
37535;SDS011;23379;51.554;6.736;2024-01-16T13:30:47;11.43;;;3.97;;
37535;SDS011;23379;51.554;6.736;2024-01-16T13:33:13;9.95;;;3.95;;
37535;SDS011;23379;51.554;6.736;2024-01-16T13:35:40;7.15;;;4.75;;
37535;SDS011;23379;51.554;6.736;2024-01-16T13:38:09;9.32;;;4.93;;
37535;SDS011;23379;51.554;6.736;2024-01-16T13:40:35;12.88;;;4.95;;
37535;SDS011;23379;51.554;6.736;2024-01-16T13:43:02;13.05;;;5.53;;
37535;SDS011;23379;51.554;6.736;2024-01-16T13:45:28;10.77;;;5.07;;
37535;SDS011;23379;51.554;6.736;2024-01-16T13:47:54;8.48;;;5.00;;
37535;SDS011;23379;51.554;6.736;2024-01-16T13:50:20;9.27;;;5.07;;
37535;SDS011;23379;51.554;6.736;2024-01-16T13:52:45;7.93;;;5.07;;
37535;SDS011;23379;51.554;6.736;2024-01-16T13:55:11;7.35;;;4.70;;
37535;SDS011;23379;51.554;6.736;2024-01-16T13:57:37;8.30;;;5.22;;
37535;SDS011;23379;51.554;6.736;2024-01-16T14:00:03;12.57;;;5.45;;
37535;SDS011;23379;51.554;6.736;2024-01-16T14:02:32;11.98;;;5.72;;
37535;SDS011;23379;51.554;6.736;2024-01-16T14:04:59;8.32;;;4.78;;
37535;SDS011;23379;51.554;6.736;2024-01-16T14:07:25;13.57;;;5.53;;
37535;SDS011;23379;51.554;6.736;2024-01-16T14:09:51;9.80;;;5.72;;
37535;SDS011;23379;51.554;6.736;2024-01-16T14:12:16;10.73;;;4.93;;
37535;SDS011;23379;51.554;6.736;2024-01-16T14:14:44;10.00;;;5.38;;
37535;SDS011;23379;51.554;6.736;2024-01-16T14:17:10;7.13;;;4.30;;
37535;SDS011;23379;51.554;6.736;2024-01-16T14:19:36;10.85;;;4.60;;
37535;SDS011;23379;51.554;6.736;2024-01-16T14:22:03;9.30;;;4.88;;
37535;SDS011;23379;51.554;6.736;2024-01-16T14:24:28;9.00;;;5.10;;
37535;SDS011;23379;51.554;6.736;2024-01-16T14:26:56;15.10;;;5.40;;
37535;SDS011;23379;51.554;6.736;2024-01-16T14:29:22;10.75;;;4.82;;
37535;SDS011;23379;51.554;6.736;2024-01-16T14:31:48;10.52;;;5.32;;
37535;SDS011;23379;51.554;6.736;2024-01-16T14:34:13;12.73;;;5.75;;
37535;SDS011;23379;51.554;6.736;2024-01-16T14:36:42;16.77;;;5.00;;
37535;SDS011;23379;51.554;6.736;2024-01-16T14:39:08;8.68;;;4.47;;
37535;SDS011;23379;51.554;6.736;2024-01-16T14:41:38;12.27;;;4.75;;
37535;SDS011;23379;51.554;6.736;2024-01-16T14:44:04;11.32;;;5.03;;
37535;SDS011;23379;51.554;6.736;2024-01-16T14:46:30;12.25;;;4.35;;